Time;durP1;ratioP1;P1;durP2;ratioP2;P2;SDS_P1;SDS_P2;PMS_P1;PMS_P2;Temp;Humidity;BMP_temperature;BMP_pressure;BME280_temperature;BME280_humidity;BME280_pressure;Samples;Min_cycle;Max_cycle;Signal;HPM_P1;HPM_P2
2022/01/07 00:01:15;;;;;;;;;;;0.50;99.90;;;;;;5071979;28;19920;-68
2022/01/07 00:03:41;;;;;;;;;;;0.50;99.90;;;;;;5071980;28;20042;-69
2022/01/07 00:06:06;;;;;;;;;;;0.60;99.90;;;;;;5071614;28;20425;-67
2022/01/07 00:08:32;;;;;;;;;;;0.70;99.90;;;;;;5071555;28;19924;-67
2022/01/07 00:10:58;;;;;;;;;;;0.80;99.90;;;;;;5071525;28;19925;-67
2022/01/07 00:13:24;;;;;;;;;;;;;;;;;;5071683;28;19916;-68
2022/01/07 00:15:49;;;;;;;;;;;0.40;99.90;;;;;;5071659;28;20271;-71
2022/01/07 00:18:15;;;;;;;;;;;0.50;99.90;;;;;;5082000;28;20357;-67
2022/01/07 00:20:41;;;;;;;;;;;0.30;99.90;;;;;;5072647;28;19947;-67
2022/01/07 00:23:07;;;;;;;;;;;0.10;99.90;;;;;;5071740;28;20287;-67
2022/01/07 00:25:32;;;;;;;;;;;0.10;99.90;;;;;;5071534;28;19917;-71
2022/01/07 00:27:58;;;;;;;;;;;0.10;99.90;;;;;;5071358;28;19920;-67
2022/01/07 00:30:24;;;;;;;;;;;0.20;99.90;;;;;;5071154;28;19916;-67
2022/01/07 00:32:49;;;;;;;;;;;0.30;99.90;;;;;;5071493;28;19995;-71
2022/01/07 00:35:16;;;;;;;;;;;0.20;99.90;;;;;;5074865;28;19916;-67
2022/01/07 00:37:42;;;;;;;;;;;0.20;99.90;;;;;;5075348;28;20333;-67
2022/01/07 00:40:09;;;;;;;;;;;0.30;99.90;;;;;;5074953;28;19913;-71
2022/01/07 00:42:34;;;;;;;;;;;0.40;99.90;;;;;;5074622;28;19923;-67
2022/01/07 00:45:00;;;;;;;;;;;0.40;99.90;;;;;;5074548;28;19914;-67
2022/01/07 00:47:26;;;;;;;;;;;0.40;99.90;;;;;;5074527;28;19920;-67
2022/01/07 00:49:52;;;;;;;;;;;0.30;99.90;;;;;;5075988;28;19925;-67
2022/01/07 00:52:17;;;;;;;;;;;0.20;99.90;;;;;;5087493;28;19913;-67
2022/01/07 00:54:43;;;;;;;;;;;0.00;99.90;;;;;;5084031;28;19912;-67
2022/01/07 00:57:08;;;;;;;;;;;-0.20;99.90;;;;;;5076498;28;20422;-68
2022/01/07 00:59:34;;;;;;;;;;;0.00;99.90;;;;;;5074748;28;20329;-70
2022/01/07 01:02:00;;;;;;;;;;;0.00;99.90;;;;;;5074400;28;19917;-67
2022/01/07 01:04:25;;;;;;;;;;;0.00;99.90;;;;;;5087701;28;20397;-69
2022/01/07 01:06:53;;;;;;;;;;;0.20;99.90;;;;;;5094673;28;19921;-67
2022/01/07 01:09:19;;;;;;;;;;;0.40;99.90;;;;;;5094806;28;20011;-69
2022/01/07 01:11:44;;;;;;;;;;;0.20;99.90;;;;;;5095025;28;19955;-67
2022/01/07 01:14:10;;;;;;;;;;;0.20;99.90;;;;;;5094532;28;19912;-67
2022/01/07 01:16:36;;;;;;;;;;;0.20;99.90;;;;;;5094588;28;19912;-67
2022/01/07 01:19:02;;;;;;;;;;;0.10;99.90;;;;;;5094515;28;19944;-67
2022/01/07 01:21:28;;;;;;;;;;;0.30;99.90;;;;;;5094544;28;19919;-68
2022/01/07 01:23:54;;;;;;;;;;;0.50;99.90;;;;;;5094391;28;19912;-71
2022/01/07 01:26:19;;;;;;;;;;;0.40;99.90;;;;;;5094276;28;19920;-67
2022/01/07 01:28:46;;;;;;;;;;;0.70;99.90;;;;;;5094708;28;19923;-67
2022/01/07 01:31:14;;;;;;;;;;;0.40;99.90;;;;;;5094285;28;19998;-67
2022/01/07 01:33:40;;;;;;;;;;;0.30;99.90;;;;;;5094001;28;19928;-67
2022/01/07 01:36:08;;;;;;;;;;;0.20;99.90;;;;;;5093560;28;19930;-67
2022/01/07 01:38:34;;;;;;;;;;;0.10;99.90;;;;;;5093687;28;20244;-69
2022/01/07 01:41:00;;;;;;;;;;;0.10;99.90;;;;;;5092619;28;19918;-68
2022/01/07 01:43:25;;;;;;;;;;;0.10;99.90;;;;;;5094084;28;19916;-68
2022/01/07 01:45:51;;;;;;;;;;;0.10;99.90;;;;;;5093926;28;19931;-67
2022/01/07 01:48:16;;;;;;;;;;;0.20;99.90;;;;;;5094559;28;20014;-67
2022/01/07 01:50:42;;;;;;;;;;;0.20;99.90;;;;;;5094044;28;19965;-67
2022/01/07 01:53:08;;;;;;;;;;;0.20;99.90;;;;;;5093899;28;20425;-68
2022/01/07 01:55:33;;;;;;;;;;;0.00;99.90;;;;;;5093809;28;19912;-68
2022/01/07 01:57:59;;;;;;;;;;;-0.10;99.90;;;;;;5093811;28;19981;-67
2022/01/07 02:00:25;;;;;;;;;;;-0.20;99.90;;;;;;5093725;28;19912;-67
2022/01/07 02:02:51;;;;;;;;;;;-0.40;99.90;;;;;;5093686;28;19912;-70
2022/01/07 02:05:16;;;;;;;;;;;-0.50;99.90;;;;;;5093926;28;19924;-69
2022/01/07 02:07:42;;;;;;;;;;;-0.50;99.90;;;;;;5093375;28;19927;-68
2022/01/07 02:10:09;;;;;;;;;;;-0.40;99.90;;;;;;5093460;28;19964;-70
2022/01/07 02:12:35;;;;;;;;;;;-0.30;99.90;;;;;;5093531;28;19919;-69
2022/01/07 02:15:01;;;;;;;;;;;-0.30;99.90;;;;;;5093475;28;19912;-68
2022/01/07 02:17:26;;;;;;;;;;;-0.20;99.90;;;;;;5093333;28;20282;-67
2022/01/07 02:19:53;;;;;;;;;;;-0.10;99.90;;;;;;5093226;28;19990;-69
2022/01/07 02:22:18;;;;;;;;;;;0.00;99.90;;;;;;5093603;28;19919;-67
2022/01/07 02:24:44;;;;;;;;;;;-0.10;99.90;;;;;;5093376;28;19912;-67
2022/01/07 02:27:11;;;;;;;;;;;0.00;99.90;;;;;;5093136;28;19955;-67
2022/01/07 02:29:36;;;;;;;;;;;0.10;99.90;;;;;;5093034;28;19916;-67
2022/01/07 02:32:02;;;;;;;;;;;0.10;99.90;;;;;;5086624;28;20371;-67
2022/01/07 02:34:28;;;;;;;;;;;0.20;99.90;;;;;;5077635;28;19912;-67
2022/01/07 02:36:53;;;;;;;;;;;0.20;99.90;;;;;;5072796;28;19966;-70
2022/01/07 02:39:19;;;;;;;;;;;0.30;99.90;;;;;;5073091;28;19912;-67
2022/01/07 02:41:45;;;;;;;;;;;0.40;99.90;;;;;;5072712;28;20379;-68
2022/01/07 02:44:11;;;;;;;;;;;0.40;99.90;;;;;;5072657;28;20042;-70
2022/01/07 02:46:36;;;;;;;;;;;0.50;99.90;;;;;;5072506;28;19958;-69
2022/01/07 02:49:09;;;;;;;;;;;0.50;99.90;;;;;;5072389;28;19916;-70
2022/01/07 02:51:34;;;;;;;;;;;0.60;99.90;;;;;;5072454;28;20058;-67
2022/01/07 02:54:00;;;;;;;;;;;0.60;99.90;;;;;;5071094;28;19995;-67
2022/01/07 02:56:26;;;;;;;;;;;0.60;99.90;;;;;;5071874;28;19912;-67
2022/01/07 02:58:51;;;;;;;;;;;0.40;99.90;;;;;;5072514;28;19912;-69
2022/01/07 03:01:17;;;;;;;;;;;0.10;99.90;;;;;;5072328;28;19917;-68
2022/01/07 03:03:42;;;;;;;;;;;0.20;99.90;;;;;;5070924;28;19997;-67
2022/01/07 03:06:08;;;;;;;;;;;0.20;99.90;;;;;;5072302;28;20299;-68
2022/01/07 03:08:34;;;;;;;;;;;0.30;99.90;;;;;;5072400;28;19920;-68
2022/01/07 03:10:59;;;;;;;;;;;0.30;99.90;;;;;;5072451;28;19944;-67
2022/01/07 03:13:25;;;;;;;;;;;0.40;99.90;;;;;;5072135;28;19913;-67
2022/01/07 03:15:50;;;;;;;;;;;0.40;99.90;;;;;;5072342;28;20370;-69
2022/01/07 03:18:16;;;;;;;;;;;0.40;99.90;;;;;;5071126;28;19912;-68
2022/01/07 03:20:42;;;;;;;;;;;0.50;99.90;;;;;;5072482;28;19952;-67
2022/01/07 03:23:12;;;;;;;;;;;0.50;99.90;;;;;;5082910;28;19916;-67
2022/01/07 03:25:42;;;;;;;;;;;0.40;99.90;;;;;;5071764;28;19963;-70
2022/01/07 03:28:10;;;;;;;;;;;0.50;99.90;;;;;;5072085;28;19920;-68
2022/01/07 03:30:36;;;;;;;;;;;0.50;99.90;;;;;;5071962;28;19916;-67
2022/01/07 03:33:01;;;;;;;;;;;0.60;99.90;;;;;;5090866;28;19912;-67
2022/01/07 03:35:27;;;;;;;;;;;0.60;99.90;;;;;;5092335;28;20313;-67
2022/01/07 03:37:52;;;;;;;;;;;0.60;99.90;;;;;;5092530;28;20007;-70
2022/01/07 03:40:19;;;;;;;;;;;0.60;99.90;;;;;;5092259;28;19948;-67
2022/01/07 03:42:45;;;;;;;;;;;0.70;99.90;;;;;;5092126;28;20304;-67
2022/01/07 03:45:11;;;;;;;;;;;0.70;99.90;;;;;;5092083;28;19919;-67
2022/01/07 03:47:37;;;;;;;;;;;0.70;99.90;;;;;;5092025;28;19927;-67
2022/01/07 03:50:06;;;;;;;;;;;0.70;99.90;;;;;;5091904;28;19912;-67
2022/01/07 03:52:32;;;;;;;;;;;0.70;99.90;;;;;;5091606;28;19912;-68
2022/01/07 03:54:57;;;;;;;;;;;0.80;99.90;;;;;;5091609;28;19914;-71
2022/01/07 03:57:23;;;;;;;;;;;0.80;99.90;;;;;;5091993;28;19966;-71
2022/01/07 03:59:50;;;;;;;;;;;;;;;;;;5091810;28;19912;-67
2022/01/07 04:02:19;;;;;;;;;;;1.00;99.90;;;;;;5092008;28;20503;-71
2022/01/07 04:04:45;;;;;;;;;;;;;;;;;;5092131;28;20425;-67
2022/01/07 04:07:11;;;;;;;;;;;0.90;99.90;;;;;;5091391;28;19924;-67
2022/01/07 04:09:37;;;;;;;;;;;1.00;99.90;;;;;;5094533;28;20003;-69
2022/01/07 04:12:03;;;;;;;;;;;1.10;99.90;;;;;;5095737;28;19995;-67
2022/01/07 04:14:29;;;;;;;;;;;1.00;99.90;;;;;;5087743;28;19919;-67
2022/01/07 04:16:55;;;;;;;;;;;1.20;99.90;;;;;;5075682;28;19912;-67
2022/01/07 04:19:21;;;;;;;;;;;1.00;99.90;;;;;;5075391;28;19919;-67
2022/01/07 04:21:49;;;;;;;;;;;1.00;99.90;;;;;;5075299;28;20713;-67
2022/01/07 04:24:14;;;;;;;;;;;1.10;99.90;;;;;;5075424;28;19912;-71
2022/01/07 04:26:40;;;;;;;;;;;1.10;99.90;;;;;;5075180;28;19977;-67
2022/01/07 04:29:05;;;;;;;;;;;1.00;99.90;;;;;;5075249;28;20011;-68
2022/01/07 04:31:31;;;;;;;;;;;0.90;99.90;;;;;;5075247;28;19912;-67
2022/01/07 04:33:56;;;;;;;;;;;0.80;99.90;;;;;;5075385;28;19918;-70
2022/01/07 04:36:22;;;;;;;;;;;0.80;99.90;;;;;;5074986;28;19919;-68
2022/01/07 04:38:48;;;;;;;;;;;0.70;99.90;;;;;;5074693;28;19940;-68
2022/01/07 04:41:13;;;;;;;;;;;0.60;99.90;;;;;;5074679;28;20351;-68
2022/01/07 04:43:39;;;;;;;;;;;0.70;99.90;;;;;;5074896;28;19924;-71
2022/01/07 04:46:05;;;;;;;;;;;0.60;99.90;;;;;;5074752;28;21042;-67
2022/01/07 04:48:30;;;;;;;;;;;0.50;99.90;;;;;;5074997;28;19916;-68
2022/01/07 04:50:56;;;;;;;;;;;0.50;99.90;;;;;;5075205;28;19916;-68
2022/01/07 04:53:22;;;;;;;;;;;0.50;99.90;;;;;;5074810;28;19957;-67
2022/01/07 04:55:47;;;;;;;;;;;0.60;99.90;;;;;;5089331;28;19912;-67
2022/01/07 04:58:14;;;;;;;;;;;0.60;99.90;;;;;;5074490;28;20379;-67
2022/01/07 05:00:41;;;;;;;;;;;0.60;99.90;;;;;;5074879;28;20271;-67
2022/01/07 05:03:06;;;;;;;;;;;0.60;99.90;;;;;;5074656;28;19923;-67
2022/01/07 05:05:32;;;;;;;;;;;0.50;99.90;;;;;;5074495;28;19912;-67
2022/01/07 05:07:58;;;;;;;;;;;0.50;99.90;;;;;;5074892;28;20307;-67
2022/01/07 05:10:23;;;;;;;;;;;0.60;99.90;;;;;;5074443;28;19913;-67
2022/01/07 05:12:49;;;;;;;;;;;0.50;99.90;;;;;;5074700;28;20519;-67
2022/01/07 05:15:17;;;;;;;;;;;0.50;99.90;;;;;;5074455;28;20400;-67
2022/01/07 05:17:43;;;;;;;;;;;0.50;99.90;;;;;;5074376;28;19912;-67
2022/01/07 05:20:10;;;;;;;;;;;0.20;99.90;;;;;;5074022;28;19925;-70
2022/01/07 05:22:35;;;;;;;;;;;0.10;99.90;;;;;;5074559;28;19912;-67
2022/01/07 05:25:01;;;;;;;;;;;0.10;99.90;;;;;;5074015;28;20376;-67
2022/01/07 05:27:27;;;;;;;;;;;0.00;99.90;;;;;;5074455;28;19930;-67
2022/01/07 05:29:53;;;;;;;;;;;0.00;99.90;;;;;;5074186;28;19916;-67
2022/01/07 05:32:19;;;;;;;;;;;0.20;99.90;;;;;;5074270;28;19919;-69
2022/01/07 05:34:45;;;;;;;;;;;0.20;99.90;;;;;;5073984;28;20037;-67
2022/01/07 05:37:11;;;;;;;;;;;0.10;99.90;;;;;;5073973;28;19926;-67
2022/01/07 05:39:37;;;;;;;;;;;0.10;99.90;;;;;;5073802;28;19912;-69
2022/01/07 05:42:03;;;;;;;;;;;0.10;99.90;;;;;;5073801;28;19959;-67
2022/01/07 05:44:28;;;;;;;;;;;0.10;99.90;;;;;;5073846;28;20288;-70
2022/01/07 05:46:55;;;;;;;;;;;0.20;99.90;;;;;;5073717;28;19925;-68
2022/01/07 05:49:21;;;;;;;;;;;;;;;;;;5073905;28;19998;-66
2022/01/07 05:51:46;;;;;;;;;;;0.10;99.90;;;;;;5073745;28;19958;-70
2022/01/07 05:54:13;;;;;;;;;;;0.20;99.90;;;;;;5073599;28;19924;-70
2022/01/07 05:56:39;;;;;;;;;;;0.30;99.90;;;;;;5073651;28;19916;-67
2022/01/07 05:59:04;;;;;;;;;;;0.40;99.90;;;;;;5073658;28;20046;-70
2022/01/07 06:01:30;;;;;;;;;;;0.40;99.90;;;;;;5073774;28;19950;-67
2022/01/07 06:03:56;;;;;;;;;;;0.30;99.90;;;;;;5073445;28;20041;-67
2022/01/07 06:06:21;;;;;;;;;;;0.30;99.90;;;;;;5073378;28;19943;-67
2022/01/07 06:08:47;;;;;;;;;;;0.20;99.90;;;;;;5073394;28;19916;-66
2022/01/07 06:11:13;;;;;;;;;;;0.20;99.90;;;;;;5073324;28;20712;-67
2022/01/07 06:13:39;;;;;;;;;;;0.10;99.90;;;;;;5073385;28;19920;-68
2022/01/07 06:16:05;;;;;;;;;;;0.20;99.90;;;;;;5073421;28;19919;-67
2022/01/07 06:18:31;;;;;;;;;;;0.20;99.90;;;;;;5073123;28;19912;-67
2022/01/07 06:20:56;;;;;;;;;;;0.30;99.90;;;;;;5079194;28;20244;-70
2022/01/07 06:23:22;;;;;;;;;;;0.10;99.90;;;;;;5091150;28;19965;-67
2022/01/07 06:25:51;;;;;;;;;;;-0.10;99.90;;;;;;5071724;28;19912;-67
2022/01/07 06:28:17;;;;;;;;;;;-0.30;99.90;;;;;;5072739;28;19966;-68
2022/01/07 06:30:43;;;;;;;;;;;-0.20;99.90;;;;;;5072334;28;19943;-68
2022/01/07 06:33:08;;;;;;;;;;;-0.30;99.90;;;;;;5072713;28;20283;-69
2022/01/07 06:35:34;;;;;;;;;;;-0.10;99.90;;;;;;5073144;28;19917;-69
2022/01/07 06:38:00;;;;;;;;;;;0.00;99.90;;;;;;5073057;28;19952;-70
2022/01/07 06:40:25;;;;;;;;;;;0.00;99.90;;;;;;5072884;28;19912;-69
2022/01/07 06:42:51;;;;;;;;;;;0.00;99.90;;;;;;5075048;28;19961;-71
2022/01/07 06:45:17;;;;;;;;;;;0.00;99.90;;;;;;5082300;28;19944;-70
2022/01/07 06:47:43;;;;;;;;;;;0.20;99.90;;;;;;5083180;28;20291;-71
2022/01/07 06:50:09;;;;;;;;;;;0.30;99.90;;;;;;5083532;28;19912;-70
2022/01/07 06:52:34;;;;;;;;;;;0.40;99.90;;;;;;5072966;28;20367;-71
2022/01/07 06:55:00;;;;;;;;;;;0.20;99.90;;;;;;5072489;28;19920;-72
2022/01/07 06:57:26;;;;;;;;;;;-0.10;99.90;;;;;;5072282;28;19934;-70
2022/01/07 06:59:51;;;;;;;;;;;-0.10;99.90;;;;;;5072445;28;19919;-69
2022/01/07 07:02:17;;;;;;;;;;;-0.10;99.90;;;;;;5071160;28;20383;-71
2022/01/07 07:04:44;;;;;;;;;;;-0.10;99.90;;;;;;5081276;28;19956;-70
2022/01/07 07:07:10;;;;;;;;;;;-0.20;99.90;;;;;;5080998;28;19932;-71
2022/01/07 07:09:36;;;;;;;;;;;-0.30;99.90;;;;;;5071358;28;19951;-70
2022/01/07 07:12:02;;;;;;;;;;;-0.30;99.90;;;;;;5070761;28;20398;-70
2022/01/07 07:14:28;;;;;;;;;;;-0.20;99.90;;;;;;5070086;28;20371;-69
2022/01/07 07:16:53;;;;;;;;;;;-0.20;99.90;;;;;;5072995;28;20416;-71
2022/01/07 07:19:19;;;;;;;;;;;-0.20;99.90;;;;;;5084029;28;19923;-70
2022/01/07 07:21:44;;;;;;;;;;;-0.20;99.90;;;;;;5071736;28;19913;-70
2022/01/07 07:24:11;;;;;;;;;;;-0.10;99.90;;;;;;5089632;28;20443;-70
2022/01/07 07:26:36;;;;;;;;;;;-0.10;99.90;;;;;;5091218;28;20317;-70
2022/01/07 07:29:02;;;;;;;;;;;-0.20;99.90;;;;;;5092316;28;19915;-70
2022/01/07 07:31:28;;;;;;;;;;;-0.10;99.90;;;;;;5092298;28;20305;-69
2022/01/07 07:34:07;;;;;;;;;;;;;;;;;;5091984;28;19912;-69
2022/01/07 07:36:33;;;;;;;;;;;0.00;99.90;;;;;;5092494;28;19965;-70
2022/01/07 07:39:08;;;;;;;;;;;0.00;99.90;;;;;;5092235;28;19924;-70
2022/01/07 07:41:35;;;;;;;;;;;0.10;99.90;;;;;;5091886;28;20461;-69
2022/01/07 07:44:01;;;;;;;;;;;0.30;99.90;;;;;;5095827;28;20039;-70
2022/01/07 07:46:30;;;;;;;;;;;0.30;99.90;;;;;;5096313;28;20450;-70
2022/01/07 07:48:56;;;;;;;;;;;0.30;99.90;;;;;;5096263;28;19927;-69
2022/01/07 07:51:21;;;;;;;;;;;0.50;99.90;;;;;;5096245;28;19922;-69
2022/01/07 07:53:47;;;;;;;;;;;;;;;;;;5096330;28;19912;-69
2022/01/07 07:56:14;;;;;;;;;;;1.00;99.90;;;;;;5096323;28;19908;-70
2022/01/07 07:58:40;;;;;;;;;;;1.00;99.90;;;;;;5096185;28;19919;-71
2022/01/07 08:01:06;;;;;;;;;;;1.20;99.90;;;;;;5096397;28;19912;-70
2022/01/07 08:03:32;;;;;;;;;;;1.80;99.90;;;;;;5096122;28;20367;-71
2022/01/07 08:05:58;;;;;;;;;;;1.80;99.90;;;;;;5095705;28;20274;-71
2022/01/07 08:08:24;;;;;;;;;;;1.80;99.90;;;;;;5094854;28;19912;-71
2022/01/07 08:10:53;;;;;;;;;;;1.70;99.90;;;;;;5095886;28;19919;-71
2022/01/07 08:15:58;;;;;;;;;;;1.70;99.90;;;;;;5095883;28;19920;-72
2022/01/07 08:16:10;;;;;;;;;;;1.90;99.90;;;;;;5093644;28;20006;-71
2022/01/07 08:18:37;;;;;;;;;;;1.90;99.90;;;;;;5096005;28;20410;-71
2022/01/07 08:21:04;;;;;;;;;;;1.90;99.90;;;;;;5095757;28;19916;-71
2022/01/07 08:23:33;;;;;;;;;;;1.90;99.90;;;;;;5095692;28;20460;-71
2022/01/07 08:25:59;;;;;;;;;;;1.90;99.90;;;;;;5095440;28;19916;-71
2022/01/07 08:28:28;;;;;;;;;;;1.80;99.90;;;;;;5095711;28;19919;-72
2022/01/07 08:36:10;;;;;;;;;;;1.50;99.90;;;;;;5095445;28;20010;-71
2022/01/07 08:38:37;;;;;;;;;;;1.40;99.90;;;;;;5095716;28;19947;-72
2022/01/07 08:41:02;;;;;;;;;;;1.40;99.90;;;;;;5095351;28;19916;-72
2022/01/07 08:43:28;;;;;;;;;;;1.50;99.90;;;;;;5095144;28;19923;-72
2022/01/07 08:45:54;;;;;;;;;;;1.50;99.90;;;;;;5095081;28;19912;-72
2022/01/07 08:48:19;;;;;;;;;;;1.60;99.90;;;;;;5095166;28;20067;-73
2022/01/07 08:50:45;;;;;;;;;;;1.60;99.90;;;;;;5095069;28;20290;-72
2022/01/07 08:53:11;;;;;;;;;;;1.60;99.90;;;;;;5095186;28;19912;-72
2022/01/07 08:55:37;;;;;;;;;;;1.50;99.90;;;;;;5094112;28;19912;-72
2022/01/07 08:58:03;;;;;;;;;;;1.40;99.90;;;;;;5093512;28;20443;-72
2022/01/07 09:00:29;;;;;;;;;;;1.40;99.90;;;;;;5092552;28;19927;-72
2022/01/07 09:02:55;;;;;;;;;;;1.30;99.90;;;;;;5094893;28;19916;-72
2022/01/07 09:05:21;;;;;;;;;;;1.30;99.90;;;;;;5094836;28;20282;-72
2022/01/07 09:07:47;;;;;;;;;;;1.30;99.90;;;;;;5094433;28;19967;-72
2022/01/07 09:10:12;;;;;;;;;;;1.20;99.90;;;;;;5094867;28;20030;-73
2022/01/07 09:12:38;;;;;;;;;;;1.30;99.90;;;;;;5094775;28;19912;-72
2022/01/07 09:15:04;;;;;;;;;;;1.20;99.90;;;;;;5094629;28;19955;-73
2022/01/07 09:17:32;;;;;;;;;;;1.20;99.90;;;;;;5094632;28;19998;-73
2022/01/07 09:19:59;;;;;;;;;;;1.10;99.90;;;;;;5094665;28;19912;-73
2022/01/07 09:22:24;;;;;;;;;;;1.10;99.90;;;;;;5094172;28;19951;-73
2022/01/07 09:24:50;;;;;;;;;;;1.10;99.90;;;;;;5093168;28;19948;-73
2022/01/07 09:27:15;;;;;;;;;;;1.10;99.90;;;;;;5094502;28;20014;-73
2022/01/07 09:29:41;;;;;;;;;;;1.20;99.90;;;;;;5094754;28;19948;-74
2022/01/07 09:32:07;;;;;;;;;;;1.20;99.90;;;;;;5094493;28;20011;-74
2022/01/07 09:34:33;;;;;;;;;;;1.30;99.90;;;;;;5093242;28;19912;-74
2022/01/07 09:36:58;;;;;;;;;;;1.30;99.90;;;;;;5094423;28;19912;-74
2022/01/07 09:39:24;;;;;;;;;;;1.30;99.90;;;;;;5094373;28;20006;-74
2022/01/07 09:41:50;;;;;;;;;;;1.30;99.90;;;;;;5093289;28;19920;-73
2022/01/07 09:44:16;;;;;;;;;;;1.40;99.90;;;;;;5094089;28;19912;-73
2022/01/07 09:46:41;;;;;;;;;;;1.40;99.90;;;;;;5094322;28;19920;-73
2022/01/07 09:49:08;;;;;;;;;;;1.50;99.90;;;;;;5093816;28;19912;-73
2022/01/07 09:51:36;;;;;;;;;;;1.50;99.90;;;;;;5093744;28;20370;-73
2022/01/07 09:54:02;;;;;;;;;;;1.70;99.90;;;;;;5094092;28;20329;-73
2022/01/07 09:56:28;;;;;;;;;;;1.80;99.90;;;;;;5093867;28;19919;-74
2022/01/07 09:58:54;;;;;;;;;;;1.80;99.90;;;;;;5093724;28;20344;-74
2022/01/07 10:01:21;;;;;;;;;;;1.90;99.90;;;;;;5093626;28;20006;-73
2022/01/07 10:03:47;;;;;;;;;;;1.90;99.90;;;;;;5091943;28;20279;-73
2022/01/07 10:06:20;;;;;;;;;;;1.90;99.90;;;;;;5092651;28;19928;-74
2022/01/07 10:09:12;;;;;;;;;;;2.00;99.90;;;;;;5074599;28;19919;-73
2022/01/07 10:11:38;;;;;;;;;;;1.90;99.90;;;;;;5073196;28;19913;-72
2022/01/07 10:14:15;;;;;;;;;;;1.80;99.90;;;;;;5078720;28;20359;-73
2022/01/07 10:16:48;;;;;;;;;;;1.60;99.90;;;;;;5073294;28;20290;-72
2022/01/07 10:19:32;;;;;;;;;;;1.40;99.90;;;;;;5073302;28;20367;-72
2022/01/07 10:21:58;;;;;;;;;;;1.30;99.90;;;;;;5073050;28;19920;-73
2022/01/07 10:24:24;;;;;;;;;;;1.30;99.90;;;;;;5073044;28;20274;-72
2022/01/07 10:27:08;;;;;;;;;;;1.30;99.90;;;;;;5072991;28;19920;-72
2022/01/07 10:29:37;;;;;;;;;;;1.30;99.90;;;;;;5072980;28;19912;-72
2022/01/07 10:32:18;;;;;;;;;;;1.20;99.90;;;;;;5073141;28;19913;-72
2022/01/07 10:35:04;;;;;;;;;;;1.20;99.90;;;;;;5073253;28;19958;-72
2022/01/07 10:37:29;;;;;;;;;;;1.30;99.90;;;;;;5067624;28;19912;-72
2022/01/07 10:39:55;;;;;;;;;;;1.20;99.90;;;;;;5072657;28;19920;-72
2022/01/07 10:42:24;;;;;;;;;;;1.30;99.90;;;;;;5072711;28;19916;-72
2022/01/07 10:45:00;;;;;;;;;;;1.30;99.90;;;;;;5071450;28;20294;-73
2022/01/07 10:47:26;;;;;;;;;;;1.50;99.90;;;;;;5071452;28;19951;-72
2022/01/07 10:50:12;;;;;;;;;;;1.60;99.90;;;;;;5089380;28;20374;-73
2022/01/07 10:52:37;;;;;;;;;;;1.60;99.90;;;;;;5088849;28;19923;-73
2022/01/07 10:55:13;;;;;;;;;;;1.70;99.90;;;;;;5092891;28;20278;-73
2022/01/07 10:57:41;;;;;;;;;;;1.60;99.90;;;;;;5092948;28;20896;-73
2022/01/07 11:00:17;;;;;;;;;;;1.60;99.90;;;;;;5092751;28;19916;-73
2022/01/07 11:02:43;;;;;;;;;;;1.50;99.90;;;;;;5092791;28;20007;-73
2022/01/07 11:05:08;;;;;;;;;;;1.50;99.90;;;;;;5091483;28;20046;-73
2022/01/07 11:07:35;;;;;;;;;;;1.50;99.90;;;;;;5091089;28;19920;-73
2022/01/07 11:10:02;;;;;;;;;;;1.50;99.90;;;;;;5092117;28;19943;-73
2022/01/07 11:12:30;;;;;;;;;;;1.50;99.90;;;;;;5092482;28;19957;-73
2022/01/07 11:14:56;;;;;;;;;;;1.50;99.90;;;;;;5092409;28;20355;-72
2022/01/07 11:17:22;;;;;;;;;;;1.40;99.90;;;;;;5090895;28;19922;-72
2022/01/07 11:19:52;;;;;;;;;;;1.40;99.90;;;;;;5092702;28;20427;-73
2022/01/07 11:22:18;;;;;;;;;;;1.50;99.90;;;;;;5092750;28;19981;-72
2022/01/07 11:24:45;;;;;;;;;;;1.40;99.90;;;;;;5091380;28;19989;-73
2022/01/07 11:27:15;;;;;;;;;;;1.40;99.90;;;;;;5092352;28;19962;-73
2022/01/07 11:29:59;;;;;;;;;;;1.70;99.90;;;;;;5090561;28;20190;-73
2022/01/07 11:32:24;;;;;;;;;;;1.80;99.90;;;;;;5091175;28;19955;-78
2022/01/07 11:34:50;;;;;;;;;;;1.80;99.90;;;;;;5091088;28;19992;-78
2022/01/07 11:37:34;;;;;;;;;;;1.70;99.90;;;;;;5091370;28;19920;-78
2022/01/07 11:40:00;;;;;;;;;;;1.80;99.90;;;;;;5090914;28;19912;-78
2022/01/07 11:42:58;;;;;;;;;;;1.90;99.90;;;;;;5092353;28;19942;-78
2022/01/07 11:45:33;;;;;;;;;;;1.90;99.90;;;;;;5068448;28;19919;-78
2022/01/07 11:48:09;;;;;;;;;;;1.80;99.90;;;;;;5091673;28;19928;-75
2022/01/07 11:50:56;;;;;;;;;;;1.60;99.90;;;;;;5092082;28;19919;-79
2022/01/07 11:53:23;;;;;;;;;;;1.50;99.90;;;;;;5092462;28;19913;-78
2022/01/07 11:55:51;;;;;;;;;;;1.60;99.90;;;;;;5092443;28;19912;-78
2022/01/07 11:58:18;;;;;;;;;;;1.70;99.90;;;;;;5092198;28;20363;-78
2022/01/07 12:00:46;;;;;;;;;;;1.60;99.90;;;;;;5092160;28;20273;-78
2022/01/07 12:03:12;;;;;;;;;;;1.70;99.90;;;;;;5092150;28;19990;-78
2022/01/07 12:05:37;;;;;;;;;;;1.60;99.90;;;;;;5092099;28;19916;-78
2022/01/07 12:08:03;;;;;;;;;;;1.50;99.90;;;;;;5091862;28;19928;-74
2022/01/07 12:10:29;;;;;;;;;;;1.40;99.90;;;;;;5091926;28;19920;-76
2022/01/07 12:12:58;;;;;;;;;;;1.50;99.90;;;;;;5089363;28;19917;-75
2022/01/07 12:15:24;;;;;;;;;;;2.00;99.90;;;;;;5088484;28;20363;-76
2022/01/07 12:17:50;;;;;;;;;;;1.70;99.90;;;;;;5092304;28;19919;-75
2022/01/07 12:20:34;;;;;;;;;;;1.70;99.90;;;;;;5091926;28;19912;-75
2022/01/07 12:22:59;;;;;;;;;;;1.60;99.90;;;;;;5091917;28;19920;-75
2022/01/07 12:25:25;;;;;;;;;;;1.60;99.90;;;;;;5091607;28;19973;-74
2022/01/07 12:28:01;;;;;;;;;;;1.70;99.90;;;;;;5091674;28;20493;-75
2022/01/07 12:30:27;;;;;;;;;;;1.60;99.90;;;;;;5092892;28;20283;-75
2022/01/07 12:32:56;;;;;;;;;;;1.40;99.90;;;;;;5095898;28;20328;-75
2022/01/07 12:35:22;;;;;;;;;;;1.30;99.90;;;;;;5095805;28;19912;-76
2022/01/07 12:37:47;;;;;;;;;;;1.50;99.90;;;;;;5095449;28;19943;-75
2022/01/07 12:40:13;;;;;;;;;;;1.50;99.90;;;;;;5095142;28;20371;-74
2022/01/07 12:42:41;;;;;;;;;;;1.40;99.90;;;;;;5093656;28;19945;-75
2022/01/07 12:45:11;;;;;;;;;;;1.40;99.90;;;;;;5074841;28;19912;-76
2022/01/07 12:47:37;;;;;;;;;;;1.40;99.90;;;;;;5074924;28;19948;-76
2022/01/07 12:50:04;;;;;;;;;;;1.40;99.90;;;;;;5074978;28;19997;-76
2022/01/07 12:52:37;;;;;;;;;;;1.20;99.90;;;;;;5073849;28;19931;-76
2022/01/07 12:55:18;;;;;;;;;;;1.30;99.90;;;;;;5082623;28;19920;-77
2022/01/07 12:57:50;;;;;;;;;;;1.20;99.90;;;;;;5079921;28;19967;-73
2022/01/07 13:00:25;;;;;;;;;;;1.20;99.90;;;;;;5074224;28;20812;-73
2022/01/07 13:03:17;;;;;;;;;;;1.30;99.90;;;;;;5083669;28;19916;-73
2022/01/07 13:05:44;;;;;;;;;;;1.10;99.90;;;;;;5083711;28;19912;-73
2022/01/07 13:08:10;;;;;;;;;;;1.10;99.90;;;;;;5088505;28;19925;-72
2022/01/07 13:10:39;;;;;;;;;;;1.10;99.90;;;;;;5088931;28;20438;-73
2022/01/07 13:13:10;;;;;;;;;;;1.20;99.90;;;;;;5089213;28;19962;-71
2022/01/07 13:16:04;;;;;;;;;;;1.10;99.90;;;;;;5085095;28;19942;-73
2022/01/07 13:18:31;;;;;;;;;;;1.10;99.90;;;;;;5076685;28;19912;-73
2022/01/07 13:21:06;;;;;;;;;;;1.20;99.90;;;;;;5083733;28;19943;-72
2022/01/07 13:23:35;;;;;;;;;;;1.20;99.90;;;;;;5091156;28;19920;-73
2022/01/07 13:26:01;;;;;;;;;;;1.20;99.90;;;;;;5086953;28;19916;-72
2022/01/07 13:28:30;;;;;;;;;;;1.20;99.90;;;;;;5092674;28;19986;-73
2022/01/07 13:30:56;;;;;;;;;;;1.30;99.90;;;;;;5123707;27;19920;-73
2022/01/07 13:33:25;;;;;;;;;;;1.30;99.90;;;;;;5092047;28;19916;-73
2022/01/07 13:35:56;;;;;;;;;;;1.50;99.90;;;;;;5086175;28;19995;-74
2022/01/07 13:38:22;;;;;;;;;;;1.40;99.90;;;;;;5084726;28;19916;-74
2022/01/07 13:40:49;;;;;;;;;;;1.50;99.90;;;;;;5077724;28;19971;-74
2022/01/07 13:43:16;;;;;;;;;;;1.50;99.90;;;;;;5087170;28;19920;-74
2022/01/07 13:45:42;;;;;;;;;;;1.50;99.90;;;;;;5077919;28;19916;-73
2022/01/07 13:48:09;;;;;;;;;;;1.60;99.90;;;;;;5077009;28;19924;-73
2022/01/07 13:50:38;;;;;;;;;;;1.60;99.90;;;;;;5092818;28;19919;-74
2022/01/07 13:53:11;;;;;;;;;;;1.60;99.90;;;;;;5093924;28;20366;-76
2022/01/07 13:55:37;;;;;;;;;;;1.70;99.90;;;;;;5093921;28;19912;-76
2022/01/07 13:58:07;;;;;;;;;;;1.80;99.90;;;;;;5092614;28;19923;-74
2022/01/07 14:00:32;;;;;;;;;;;1.90;99.90;;;;;;5094133;28;19917;-74
2022/01/07 14:02:58;;;;;;;;;;;2.20;99.90;;;;;;5094039;28;19957;-75
2022/01/07 14:05:23;;;;;;;;;;;2.20;99.90;;;;;;5092454;28;20359;-77
2022/01/07 14:07:50;;;;;;;;;;;2.40;99.90;;;;;;5093504;28;19924;-76
2022/01/07 14:10:15;;;;;;;;;;;2.90;99.90;;;;;;5093481;28;19912;-73
2022/01/07 14:12:53;;;;;;;;;;;4.00;99.90;;;;;;5088529;28;20003;-74
2022/01/07 14:15:24;;;;;;;;;;;4.90;99.90;;;;;;5090443;28;20386;-73
2022/01/07 14:17:50;;;;;;;;;;;4.90;99.90;;;;;;5090866;28;19956;-72
2022/01/07 14:20:16;;;;;;;;;;;4.00;99.90;;;;;;5092267;28;20103;-73
2022/01/07 14:22:43;;;;;;;;;;;3.80;99.90;;;;;;5092089;28;20680;-74
2022/01/07 14:25:10;;;;;;;;;;;3.70;99.90;;;;;;5091914;28;20023;-73
2022/01/07 14:27:38;;;;;;;;;;;3.30;99.90;;;;;;5089869;28;19920;-73
2022/01/07 14:30:04;;;;;;;;;;;3.20;99.90;;;;;;5088986;28;19919;-73
2022/01/07 14:32:30;;;;;;;;;;;3.20;99.90;;;;;;5091586;28;19991;-73
2022/01/07 14:34:57;;;;;;;;;;;3.30;99.90;;;;;;5091486;28;20004;-73
2022/01/07 14:37:25;;;;;;;;;;;3.30;99.90;;;;;;5088847;28;19998;-73